createdAt,value
2022-11-09T00:00:49.664Z,12.57
2022-11-09T00:03:17.143Z,12.56
2022-11-09T00:05:44.591Z,12.54
2022-11-09T00:08:12.239Z,12.53
2022-11-09T00:10:39.327Z,12.53
2022-11-09T00:13:06.455Z,12.49
2022-11-09T00:15:33.375Z,12.44
2022-11-09T00:18:03.131Z,12.43
2022-11-09T00:20:30.525Z,12.41
2022-11-09T00:22:57.443Z,12.40
2022-11-09T00:25:24.772Z,12.38
2022-11-09T00:27:51.686Z,12.35
2022-11-09T00:30:18.716Z,12.35
2022-11-09T00:32:45.669Z,12.34
2022-11-09T00:35:12.630Z,12.35
2022-11-09T00:37:39.805Z,12.37
2022-11-09T00:40:07.882Z,12.37
2022-11-09T00:42:34.750Z,12.38
2022-11-09T00:45:01.654Z,12.35
2022-11-09T00:47:28.513Z,12.33
2022-11-09T00:49:55.791Z,12.32
2022-11-09T00:52:22.737Z,12.28
2022-11-09T00:54:49.687Z,12.25
2022-11-09T00:57:17.006Z,12.22
2022-11-09T00:59:43.884Z,12.19
2022-11-09T01:02:10.854Z,12.17
2022-11-09T01:04:37.857Z,12.14
2022-11-09T01:07:06.482Z,12.14
2022-11-09T01:09:33.378Z,12.10
2022-11-09T01:12:00.288Z,12.09
2022-11-09T01:14:27.198Z,12.05
2022-11-09T01:16:54.082Z,12.02
2022-11-09T01:19:20.945Z,12.00
2022-11-09T01:21:47.896Z,11.96
2022-11-09T01:24:14.803Z,11.95
2022-11-09T01:26:41.665Z,11.94
2022-11-09T01:29:08.623Z,11.93
2022-11-09T01:31:35.513Z,11.94
2022-11-09T01:34:02.459Z,11.93
2022-11-09T01:36:29.918Z,11.95
2022-11-09T01:38:56.958Z,11.93
2022-11-09T01:41:28.883Z,11.91
2022-11-09T01:44:19.865Z,11.90
2022-11-09T01:47:02.056Z,11.88
2022-11-09T01:49:58.250Z,11.88
2022-11-09T01:52:32.479Z,11.86
2022-11-09T01:55:07.145Z,11.84
2022-11-09T01:57:40.178Z,11.81
2022-11-09T02:00:14.715Z,11.75
2022-11-09T02:02:52.256Z,11.68
2022-11-09T02:05:26.819Z,11.70
2022-11-09T02:07:55.166Z,11.69
2022-11-09T02:10:49.167Z,11.70
2022-11-09T02:13:19.655Z,11.77
2022-11-09T02:15:49.048Z,11.81
2022-11-09T02:18:17.114Z,11.80
2022-11-09T02:20:57.150Z,11.83
2022-11-09T02:23:26.752Z,11.83
2022-11-09T02:25:59.613Z,11.85
2022-11-09T02:28:28.779Z,11.85
2022-11-09T02:30:57.497Z,11.85
2022-11-09T02:33:24.805Z,11.84
2022-11-09T02:35:51.920Z,11.85
2022-11-09T02:38:18.865Z,11.87
2022-11-09T02:40:50.372Z,11.95
2022-11-09T02:43:19.167Z,11.96
2022-11-09T02:45:46.363Z,11.95
2022-11-09T02:48:13.298Z,11.95
2022-11-09T02:50:40.213Z,11.98
2022-11-09T02:53:07.171Z,11.97
2022-11-09T02:55:34.067Z,11.99
2022-11-09T02:58:01.632Z,11.98
2022-11-09T03:00:28.608Z,11.97
2022-11-09T03:02:56.227Z,11.96
2022-11-09T03:05:23.093Z,11.99
2022-11-09T03:07:49.985Z,11.98
2022-11-09T03:10:17.231Z,12.01
2022-11-09T03:12:44.167Z,12.04
2022-11-09T03:15:11.513Z,12.05
2022-11-09T03:17:38.542Z,12.06
2022-11-09T03:20:06.562Z,12.05
2022-11-09T03:22:33.460Z,12.02
2022-11-09T03:25:00.336Z,12.03
2022-11-09T03:27:27.221Z,11.99
2022-11-09T03:29:54.150Z,12.00
2022-11-09T03:32:21.030Z,11.99
2022-11-09T03:34:49.092Z,11.93
2022-11-09T03:37:16.053Z,11.94
2022-11-09T03:39:43.004Z,11.92
2022-11-09T03:42:09.884Z,11.91
2022-11-09T03:44:36.757Z,11.88
2022-11-09T03:47:03.652Z,11.87
2022-11-09T03:49:30.546Z,11.85
2022-11-09T03:51:57.432Z,11.85
2022-11-09T03:54:24.348Z,11.82
2022-11-09T03:56:51.250Z,11.79
2022-11-09T03:59:19.019Z,11.77
2022-11-09T04:01:46.215Z,11.77
2022-11-09T04:04:13.167Z,11.76
2022-11-09T04:06:40.111Z,11.74
2022-11-09T04:09:07.074Z,11.79
2022-11-09T04:11:34.437Z,11.76
2022-11-09T04:14:01.421Z,11.75
2022-11-09T04:16:28.362Z,11.74
2022-11-09T04:18:55.271Z,11.73
2022-11-09T04:21:24.069Z,11.73
2022-11-09T04:23:51.140Z,11.75
2022-11-09T04:26:18.049Z,11.71
2022-11-09T04:28:44.995Z,11.68
2022-11-09T04:31:11.855Z,11.66
2022-11-09T04:33:38.732Z,11.63
2022-11-09T04:36:06.394Z,11.61
2022-11-09T04:38:33.419Z,11.59
2022-11-09T04:41:02.348Z,11.58
2022-11-09T04:43:29.426Z,11.55
2022-11-09T04:46:03.329Z,11.56
2022-11-09T04:48:32.546Z,11.55
2022-11-09T04:51:08.272Z,11.54
2022-11-09T04:53:36.659Z,11.52
2022-11-09T04:56:05.601Z,11.50
2022-11-09T04:58:33.152Z,11.51
2022-11-09T05:01:06.615Z,11.51
2022-11-09T05:03:34.058Z,11.50
2022-11-09T05:06:01.031Z,11.48
2022-11-09T05:08:27.982Z,11.48
2022-11-09T05:10:58.150Z,11.43
2022-11-09T05:13:25.066Z,11.47
2022-11-09T05:15:51.947Z,11.46
2022-11-09T05:18:18.832Z,11.45
2022-11-09T05:20:45.697Z,11.44
2022-11-09T05:23:31.104Z,11.43
2022-11-09T05:25:57.974Z,11.43
2022-11-09T05:28:24.857Z,11.42
2022-11-09T05:30:51.744Z,11.39
2022-11-09T05:33:18.968Z,11.40
2022-11-09T05:35:46.159Z,11.39
2022-11-09T05:38:13.036Z,11.36
2022-11-09T05:40:39.908Z,11.34
2022-11-09T05:43:06.831Z,11.32
2022-11-09T05:45:42.450Z,11.31
2022-11-09T05:48:12.470Z,11.31
2022-11-09T05:50:41.166Z,11.29
2022-11-09T05:53:08.806Z,11.31
2022-11-09T05:55:35.859Z,11.30
2022-11-09T05:58:02.873Z,11.28
2022-11-09T06:00:31.218Z,11.28
2022-11-09T06:03:10.069Z,11.27
2022-11-09T06:05:39.479Z,11.25
2022-11-09T06:08:16.471Z,11.26
2022-11-09T06:10:44.150Z,11.26
2022-11-09T06:13:12.799Z,11.29
2022-11-09T06:15:39.713Z,11.30
2022-11-09T06:18:06.648Z,11.31
2022-11-09T06:20:33.546Z,11.28
2022-11-09T06:23:04.303Z,11.29
2022-11-09T06:25:33.547Z,11.29
2022-11-09T06:28:01.477Z,11.29
2022-11-09T06:30:28.447Z,11.26
2022-11-09T06:33:02.900Z,11.27
2022-11-09T06:35:30.381Z,11.24
2022-11-09T06:38:01.336Z,11.22
2022-11-09T06:40:29.448Z,11.21
2022-11-09T06:43:00.982Z,11.20
2022-11-09T06:45:30.531Z,11.20
2022-11-09T06:48:02.883Z,11.20
2022-11-09T06:50:32.983Z,11.17
2022-11-09T06:53:06.636Z,11.16
2022-11-09T06:55:35.366Z,11.16
2022-11-09T06:58:19.350Z,11.16
2022-11-09T07:00:46.815Z,11.14
2022-11-09T07:03:19.938Z,11.11
2022-11-09T07:05:48.846Z,11.10
2022-11-09T07:08:17.309Z,11.11
2022-11-09T07:10:45.055Z,11.09
2022-11-09T07:13:12.898Z,11.12
2022-11-09T07:15:40.057Z,11.14
2022-11-09T07:18:11.758Z,11.14
2022-11-09T07:20:38.715Z,11.12
2022-11-09T07:23:05.662Z,11.13
2022-11-09T07:25:32.751Z,11.13
2022-11-09T07:28:08.421Z,11.12
2022-11-09T07:30:39.124Z,11.15
2022-11-09T07:33:15.938Z,11.18
2022-11-09T07:35:42.871Z,11.23
2022-11-09T07:38:09.770Z,11.28
2022-11-09T07:40:37.104Z,11.31
2022-11-09T07:43:06.820Z,11.36
2022-11-09T07:45:35.527Z,11.42
2022-11-09T07:48:06.795Z,11.45
2022-11-09T07:50:35.656Z,11.45
2022-11-09T07:53:03.512Z,11.49
2022-11-09T07:55:31.023Z,11.50
2022-11-09T07:58:13.752Z,11.53
2022-11-09T08:00:42.439Z,11.55
2022-11-09T08:03:09.700Z,11.57
2022-11-09T08:05:37.352Z,11.57
2022-11-09T08:08:11.397Z,11.57
2022-11-09T08:10:39.347Z,11.61
2022-11-09T08:13:13.259Z,11.62
2022-11-09T08:15:41.719Z,11.64
2022-11-09T08:18:13.946Z,11.66
2022-11-09T08:20:41.139Z,11.65
2022-11-09T08:23:10.856Z,11.68
2022-11-09T08:25:37.739Z,11.69
2022-11-09T08:28:04.836Z,11.73
2022-11-09T08:30:32.393Z,11.76
2022-11-09T08:33:01.622Z,11.79
2022-11-09T08:35:29.359Z,11.84
2022-11-09T08:37:59.790Z,11.89
2022-11-09T08:40:27.185Z,11.91
2022-11-09T08:42:54.977Z,11.93
2022-11-09T08:45:22.251Z,12.03
2022-11-09T08:47:49.272Z,12.01
2022-11-09T08:50:16.767Z,12.05
2022-11-09T08:52:43.692Z,12.10
2022-11-09T08:55:10.874Z,12.20
2022-11-09T08:57:37.806Z,12.24
2022-11-09T09:00:05.947Z,12.27
2022-11-09T09:02:33.062Z,12.33
2022-11-09T09:04:59.991Z,12.38
2022-11-09T09:07:26.912Z,12.41
2022-11-09T09:09:54.136Z,12.47
2022-11-09T09:12:21.035Z,12.52
2022-11-09T09:14:47.997Z,12.54
2022-11-09T09:17:14.960Z,12.62
2022-11-09T09:19:45.985Z,12.68
2022-11-09T09:22:16.060Z,12.77
2022-11-09T09:24:42.944Z,12.87
2022-11-09T09:27:09.860Z,12.90
2022-11-09T09:29:36.730Z,12.94
2022-11-09T09:32:03.789Z,12.91
2022-11-09T09:34:30.847Z,12.98
2022-11-09T09:36:57.791Z,13.07
2022-11-09T09:39:24.685Z,13.10
2022-11-09T09:42:04.832Z,13.20
2022-11-09T09:44:56.648Z,13.23
2022-11-09T09:47:40.796Z,13.33
2022-11-09T09:50:19.178Z,13.44
2022-11-09T09:53:23.882Z,13.57
2022-11-09T09:56:02.974Z,13.54
2022-11-09T09:58:34.739Z,13.48
2022-11-09T10:01:21.049Z,13.49
2022-11-09T10:03:49.206Z,13.50
2022-11-09T10:07:04.436Z,13.53
2022-11-09T10:09:51.891Z,13.66
2022-11-09T10:12:45.418Z,13.73
2022-11-09T10:15:38.874Z,14.11
2022-11-09T10:18:11.618Z,14.15
2022-11-09T10:20:59.779Z,14.36
2022-11-09T10:23:46.136Z,14.51
2022-11-09T10:26:33.344Z,14.42
2022-11-09T10:29:20.269Z,14.40
2022-11-09T10:31:51.153Z,14.26
2022-11-09T10:34:39.902Z,14.07
2022-11-09T10:37:33.987Z,14.02
2022-11-09T10:40:24.521Z,13.94
2022-11-09T10:42:56.639Z,14.11
2022-11-09T10:45:35.732Z,14.43
2022-11-09T10:48:04.291Z,14.69
2022-11-09T10:50:54.037Z,14.63
2022-11-09T10:53:27.205Z,14.50
2022-11-09T10:56:20.234Z,14.46
2022-11-09T10:58:52.210Z,14.44
2022-11-09T11:01:25.247Z,14.28
2022-11-09T11:03:55.402Z,14.17
2022-11-09T11:06:22.219Z,14.06
2022-11-09T11:09:10.296Z,14.04
2022-11-09T11:11:39.491Z,13.95
2022-11-09T11:14:19.863Z,13.95
2022-11-09T11:16:48.302Z,14.00
2022-11-09T11:19:35.940Z,14.03
2022-11-09T11:22:21.707Z,13.90
2022-11-09T11:25:05.009Z,13.91
2022-11-09T11:27:54.796Z,13.91
2022-11-09T11:30:36.050Z,13.78
2022-11-09T11:33:15.190Z,13.82
2022-11-09T11:35:58.534Z,13.88
2022-11-09T11:38:47.261Z,13.75
2022-11-09T11:41:54.292Z,13.75
2022-11-09T11:44:33.682Z,13.69
2022-11-09T11:47:21.729Z,13.69
2022-11-09T11:50:26.010Z,13.60
2022-11-09T11:53:43.341Z,13.58
2022-11-09T11:56:55.427Z,13.58
2022-11-09T11:59:51.798Z,13.43
2022-11-09T12:02:48.954Z,13.11
2022-11-09T12:06:01.078Z,13.07
2022-11-09T12:08:38.416Z,12.88
2022-11-09T12:12:02.415Z,12.72
2022-11-09T12:15:05.573Z,12.70
2022-11-09T12:18:08.180Z,12.60
2022-11-09T12:20:53.688Z,12.60
2022-11-09T12:23:30.979Z,12.61
2022-11-09T12:26:22.889Z,12.61
2022-11-09T12:29:21.901Z,12.61
2022-11-09T12:32:03.168Z,12.61
2022-11-09T12:35:10.520Z,12.58
2022-11-09T12:37:56.270Z,12.56
2022-11-09T12:40:33.275Z,12.59
2022-11-09T12:43:21.804Z,12.62
2022-11-09T12:45:51.858Z,12.66
2022-11-09T12:48:29.601Z,12.67
2022-11-09T12:50:58.618Z,12.73
2022-11-09T12:53:33.250Z,12.75
2022-11-09T12:56:19.263Z,12.86
2022-11-09T12:58:46.515Z,12.87
2022-11-09T13:01:35.017Z,12.89
2022-11-09T13:04:04.711Z,12.87
2022-11-09T13:06:33.734Z,12.83
2022-11-09T13:09:18.581Z,12.80
2022-11-09T13:11:49.788Z,12.83
2022-11-09T13:14:22.833Z,12.85
2022-11-09T13:16:54.601Z,12.78
2022-11-09T13:19:37.534Z,12.76
2022-11-09T13:22:27.122Z,12.76
2022-11-09T13:25:03.272Z,12.75
2022-11-09T13:27:33.060Z,12.78
2022-11-09T13:30:01.269Z,12.76
2022-11-09T13:32:33.156Z,12.76
2022-11-09T13:35:03.542Z,12.70
2022-11-09T13:37:49.107Z,12.69
2022-11-09T13:40:31.198Z,12.68
2022-11-09T13:43:13.796Z,12.72
2022-11-09T13:45:46.906Z,12.78
2022-11-09T13:48:29.451Z,12.81
2022-11-09T13:51:00.285Z,12.84
2022-11-09T13:53:39.289Z,12.89
2022-11-09T13:56:30.319Z,12.93
2022-11-09T13:59:12.201Z,12.87
2022-11-09T14:01:54.022Z,12.89
2022-11-09T14:04:29.110Z,12.95
2022-11-09T14:07:08.698Z,12.97
2022-11-09T14:10:22.111Z,12.98
2022-11-09T14:13:05.942Z,12.99
2022-11-09T14:16:25.243Z,12.95
2022-11-09T14:19:04.489Z,12.94
2022-11-09T14:21:51.926Z,12.93
2022-11-09T14:24:24.861Z,12.93
2022-11-09T14:27:15.318Z,12.92
2022-11-09T14:29:57.873Z,12.91
2022-11-09T14:32:36.318Z,12.88
2022-11-09T14:35:25.139Z,12.86
2022-11-09T14:37:54.573Z,12.86
2022-11-09T14:40:30.779Z,12.86
2022-11-09T14:43:13.195Z,12.85
2022-11-09T14:45:50.656Z,12.83
2022-11-09T14:48:20.517Z,12.84
2022-11-09T14:50:48.748Z,12.80
2022-11-09T14:53:22.407Z,12.78
2022-11-09T14:55:50.998Z,12.79
2022-11-09T14:58:20.216Z,12.78
2022-11-09T15:01:07.841Z,12.72
2022-11-09T15:03:34.767Z,12.70
2022-11-09T15:06:09.176Z,12.65
2022-11-09T15:08:54.101Z,12.65
2022-11-09T15:11:30.593Z,12.63
2022-11-09T15:13:58.134Z,12.58
2022-11-09T15:16:29.803Z,12.52
2022-11-09T15:18:56.929Z,12.49
2022-11-09T15:21:27.007Z,12.38
2022-11-09T15:24:25.384Z,12.31
2022-11-09T15:26:54.038Z,12.23
2022-11-09T15:29:42.912Z,12.17
2022-11-09T15:32:19.807Z,12.14
2022-11-09T15:34:57.663Z,12.15
2022-11-09T15:37:38.218Z,12.05
2022-11-09T15:40:12.733Z,12.04
2022-11-09T15:42:43.598Z,12.03
2022-11-09T15:45:18.945Z,12.01
2022-11-09T15:47:55.625Z,11.97
2022-11-09T15:50:26.142Z,11.94
2022-11-09T15:52:53.451Z,11.91
2022-11-09T15:55:22.849Z,11.87
2022-11-09T15:57:52.403Z,11.83
2022-11-09T16:00:22.294Z,11.80
2022-11-09T16:02:49.595Z,11.80
2022-11-09T16:05:16.696Z,11.77
2022-11-09T16:07:52.268Z,11.70
2022-11-09T16:10:23.040Z,11.69
2022-11-09T16:12:53.104Z,11.67
2022-11-09T16:15:20.614Z,11.67
2022-11-09T16:17:49.595Z,11.59
2022-11-09T16:20:18.630Z,11.59
2022-11-09T16:22:46.515Z,11.59
2022-11-09T16:25:13.803Z,11.58
2022-11-09T16:27:50.688Z,11.56
2022-11-09T16:30:18.611Z,11.59
2022-11-09T16:32:45.588Z,11.60
2022-11-09T16:35:26.749Z,11.60
2022-11-09T16:37:55.226Z,11.59
2022-11-09T16:40:23.120Z,11.57
2022-11-09T16:42:52.158Z,11.57
2022-11-09T16:45:19.291Z,11.54
2022-11-09T16:47:51.328Z,11.57
2022-11-09T16:50:18.436Z,11.52
2022-11-09T16:52:45.457Z,11.55
2022-11-09T16:55:12.371Z,11.55
2022-11-09T16:57:39.263Z,11.54
2022-11-09T17:00:08.042Z,11.53
2022-11-09T17:02:35.536Z,11.55
2022-11-09T17:05:02.467Z,11.53
2022-11-09T17:07:29.626Z,11.51
2022-11-09T17:09:56.527Z,11.51
2022-11-09T17:12:23.481Z,11.49
2022-11-09T17:14:50.351Z,11.47
2022-11-09T17:17:22.393Z,11.46
2022-11-09T17:19:49.768Z,11.44
2022-11-09T17:22:17.421Z,11.39
2022-11-09T17:24:44.475Z,11.40
2022-11-09T17:27:12.580Z,11.41
2022-11-09T17:29:40.098Z,11.40
2022-11-09T17:32:09.595Z,11.41
2022-11-09T17:34:36.635Z,11.36
2022-11-09T17:37:05.575Z,11.36
2022-11-09T17:39:33.776Z,11.33
2022-11-09T17:42:00.688Z,11.31
2022-11-09T17:44:27.598Z,11.32
2022-11-09T17:46:54.549Z,11.32
2022-11-09T17:49:21.544Z,11.33
2022-11-09T17:51:48.670Z,11.37
2022-11-09T17:54:15.733Z,11.35
2022-11-09T17:56:42.657Z,11.35
2022-11-09T17:59:09.639Z,11.34
2022-11-09T18:01:41.503Z,11.34
2022-11-09T18:04:10.928Z,11.34
2022-11-09T18:06:38.721Z,11.34
2022-11-09T18:11:53.392Z,11.33
2022-11-09T18:14:20.432Z,11.34
2022-11-09T18:16:47.466Z,11.34
2022-11-09T18:19:14.422Z,11.41
2022-11-09T18:21:41.425Z,11.40
2022-11-09T18:24:08.791Z,11.40
2022-11-09T18:26:35.674Z,11.38
2022-11-09T18:29:02.638Z,11.33
2022-11-09T18:31:29.591Z,11.31
2022-11-09T18:33:56.508Z,11.31
2022-11-09T18:36:23.682Z,11.29
2022-11-09T18:38:54.981Z,11.29
2022-11-09T18:41:24.005Z,11.29
2022-11-09T18:43:53.767Z,11.29
2022-11-09T18:46:22.333Z,11.29
2022-11-09T18:48:53.998Z,11.29
2022-11-09T18:51:21.525Z,11.31
2022-11-09T18:53:49.780Z,11.29
2022-11-09T18:56:24.351Z,11.28
2022-11-09T18:58:54.450Z,11.29
2022-11-09T19:01:23.832Z,11.27
2022-11-09T19:03:56.372Z,11.26
2022-11-09T19:06:25.762Z,11.27
2022-11-09T19:09:11.452Z,11.25
2022-11-09T19:11:38.588Z,11.25
2022-11-09T19:14:05.621Z,11.21
2022-11-09T19:16:32.615Z,11.22
2022-11-09T19:18:59.835Z,11.22
2022-11-09T19:21:40.101Z,11.21
2022-11-09T19:24:11.482Z,11.21
2022-11-09T19:26:38.685Z,11.21
2022-11-09T19:29:07.580Z,11.18
2022-11-09T19:31:34.675Z,11.19
2022-11-09T19:34:01.734Z,11.20
2022-11-09T19:36:31.435Z,11.21
2022-11-09T19:38:59.298Z,11.21
2022-11-09T19:41:26.495Z,11.19
2022-11-09T19:43:58.261Z,11.19
2022-11-09T19:46:27.594Z,11.15
2022-11-09T19:48:54.615Z,11.11
2022-11-09T19:51:21.670Z,11.08
2022-11-09T19:53:51.552Z,11.05
2022-11-09T19:56:19.701Z,11.02
2022-11-09T19:58:52.660Z,11.00
2022-11-09T20:01:19.947Z,10.97
2022-11-09T20:03:55.180Z,10.94
2022-11-09T20:06:23.900Z,10.93
2022-11-09T20:08:52.045Z,10.89
2022-11-09T20:11:40.760Z,10.88
2022-11-09T20:14:09.843Z,10.85
2022-11-09T20:16:38.134Z,10.85
2022-11-09T20:19:08.958Z,10.84
2022-11-09T20:21:37.293Z,10.82
2022-11-09T20:24:04.639Z,10.81
2022-11-09T20:26:31.763Z,10.77
2022-11-09T20:28:58.799Z,10.76
2022-11-09T20:31:25.807Z,10.70
2022-11-09T20:33:52.832Z,10.71
2022-11-09T20:36:20.298Z,10.71
2022-11-09T20:38:47.531Z,10.71
2022-11-09T20:41:15.254Z,10.69
2022-11-09T20:43:42.453Z,10.68
2022-11-09T20:46:16.696Z,10.66
2022-11-09T20:48:59.397Z,10.64
2022-11-09T20:51:27.551Z,10.59
2022-11-09T20:53:54.686Z,10.57
2022-11-09T20:56:22.031Z,10.59
2022-11-09T20:58:49.609Z,10.58
2022-11-09T21:01:20.204Z,10.57
2022-11-09T21:03:49.418Z,10.50
2022-11-09T21:06:16.345Z,10.49
2022-11-09T21:08:51.182Z,10.49
2022-11-09T21:11:19.399Z,10.45
2022-11-09T21:13:54.167Z,10.42
2022-11-09T21:16:23.003Z,10.44
2022-11-09T21:18:50.309Z,10.40
2022-11-09T21:21:23.885Z,10.37
2022-11-09T21:24:09.907Z,10.34
2022-11-09T21:27:15.338Z,10.34
2022-11-09T21:29:51.125Z,10.32
2022-11-09T21:32:23.134Z,10.30
2022-11-09T21:34:51.679Z,10.27
2022-11-09T21:37:18.598Z,10.24
2022-11-09T21:39:45.927Z,10.28
2022-11-09T21:42:13.024Z,10.30
2022-11-09T21:44:40.522Z,10.29
2022-11-09T21:47:08.083Z,10.30
2022-11-09T21:49:35.132Z,10.30
2022-11-09T21:52:03.311Z,10.32
2022-11-09T21:54:30.753Z,10.33
2022-11-09T21:56:57.982Z,10.33
2022-11-09T21:59:25.152Z,10.33
2022-11-09T22:01:52.271Z,10.32
2022-11-09T22:04:19.500Z,10.29
2022-11-09T22:06:46.545Z,10.32
2022-11-09T22:09:18.298Z,10.29
2022-11-09T22:12:04.179Z,10.30
2022-11-09T22:14:49.675Z,10.30
2022-11-09T22:17:16.555Z,10.30
2022-11-09T22:20:02.339Z,10.29
2022-11-09T22:22:31.274Z,10.29
2022-11-09T22:24:58.684Z,10.29
2022-11-09T22:27:25.602Z,10.27
2022-11-09T22:29:52.526Z,10.24
2022-11-09T22:32:19.639Z,10.24
2022-11-09T22:34:46.587Z,10.21
2022-11-09T22:37:13.785Z,10.20
2022-11-09T22:39:46.777Z,10.18
2022-11-09T22:42:14.425Z,10.18
2022-11-09T22:44:41.330Z,10.17
2022-11-09T22:47:08.369Z,10.15
2022-11-09T22:49:36.581Z,10.14
2022-11-09T22:52:04.776Z,10.11
2022-11-09T22:54:31.709Z,10.07
2022-11-09T22:56:58.615Z,10.08
2022-11-09T22:59:25.510Z,10.05
2022-11-09T23:01:52.415Z,10.03
2022-11-09T23:04:19.369Z,10.00
2022-11-09T23:06:46.403Z,10.00
2022-11-09T23:09:13.509Z,9.96
2022-11-09T23:11:40.443Z,9.94
2022-11-09T23:14:07.356Z,9.95
2022-11-09T23:16:34.279Z,9.96
2022-11-09T23:19:01.185Z,9.99
2022-11-09T23:21:30.455Z,10.01
2022-11-09T23:24:02.207Z,10.03
2022-11-09T23:26:30.730Z,10.03
2022-11-09T23:28:57.848Z,10.02
2022-11-09T23:31:26.820Z,10.05
2022-11-09T23:33:57.354Z,10.05
2022-11-09T23:36:26.278Z,10.03
2022-11-09T23:38:53.679Z,9.98
2022-11-09T23:41:20.877Z,9.99
2022-11-09T23:43:49.843Z,9.95
2022-11-09T23:46:18.265Z,9.93
2022-11-09T23:48:45.618Z,9.90
2022-11-09T23:51:13.022Z,9.88
2022-11-09T23:53:40.291Z,9.87
2022-11-09T23:56:12.298Z,9.85
2022-11-09T23:58:39.374Z,9.85
